Time;durP1;ratioP1;P1;durP2;ratioP2;P2;SDS_P1;SDS_P2;PMS_P1;PMS_P2;Temp;Humidity;BMP_temperature;BMP_pressure;BME280_temperature;BME280_humidity;BME280_pressure;Samples;Min_cycle;Max_cycle;Signal;HPM_P1;HPM_P2
2023/08/28 00:02:18;;;;;;;10.85;9.77;;;24.80;86.60;;;;;;5011898;28;20026;-56
2023/08/28 00:04:44;;;;;;;11.88;10.25;;;24.80;86.70;;;;;;5011204;28;20421;-54
2023/08/28 00:07:10;;;;;;;12.02;10.75;;;24.80;86.70;;;;;;5011845;28;20481;-56
2023/08/28 00:09:35;;;;;;;12.07;10.82;;;24.80;87.00;;;;;;5011871;28;20084;-55
2023/08/28 00:12:01;;;;;;;12.52;11.32;;;24.70;87.00;;;;;;5012174;28;20026;-56
2023/08/28 00:14:27;;;;;;;12.82;10.60;;;24.70;86.90;;;;;;5011980;28;20543;-55
2023/08/28 00:16:53;;;;;;;12.20;10.85;;;24.70;87.00;;;;;;5011672;28;20037;-57
2023/08/28 00:19:19;;;;;;;11.23;9.88;;;24.70;87.10;;;;;;5011670;28;20017;-56
2023/08/28 00:21:44;;;;;;;11.48;10.38;;;24.60;87.00;;;;;;5011590;28;20410;-54
2023/08/28 00:24:10;;;;;;;12.45;11.00;;;24.60;87.20;;;;;;5011599;28;20542;-56
2023/08/28 00:26:36;;;;;;;11.82;10.65;;;24.60;87.10;;;;;;5011497;28;20060;-56
2023/08/28 00:29:02;;;;;;;11.43;10.27;;;24.60;87.20;;;;;;5011608;28;20120;-56
2023/08/28 00:31:28;;;;;;;12.15;10.95;;;24.60;87.10;;;;;;5011743;28;20041;-55
2023/08/28 00:33:54;;;;;;;12.00;10.80;;;24.60;87.20;;;;;;5011465;28;20026;-56
2023/08/28 00:36:20;;;;;;;13.35;11.00;;;24.60;87.10;;;;;;5011592;28;20033;-56
2023/08/28 00:38:46;;;;;;;11.88;10.68;;;24.60;87.20;;;;;;5011435;28;20026;-56
2023/08/28 00:41:11;;;;;;;12.52;10.82;;;24.60;87.10;;;;;;5011374;28;20378;-57
2023/08/28 00:43:37;;;;;;;12.35;11.10;;;24.60;87.20;;;;;;5011514;28;20034;-55
2023/08/28 00:46:03;;;;;;;12.32;10.98;;;24.60;87.30;;;;;;5011394;28;20081;-57
2023/08/28 00:48:29;;;;;;;11.60;10.52;;;24.60;87.20;;;;;;5011359;28;20026;-57
2023/08/28 00:50:55;;;;;;;11.75;10.55;;;24.60;87.30;;;;;;5011441;28;20363;-56
2023/08/28 00:53:22;;;;;;;12.20;10.82;;;24.50;87.50;;;;;;5011333;28;20533;-56
2023/08/28 00:55:48;;;;;;;12.38;11.18;;;24.50;87.40;;;;;;5011518;28;20036;-57
2023/08/28 00:58:13;;;;;;;12.88;11.57;;;24.50;87.60;;;;;;5011650;28;20081;-56
2023/08/28 01:00:41;;;;;;;13.85;11.05;;;24.50;87.60;;;;;;5011383;28;20640;-55
2023/08/28 01:03:06;;;;;;;11.68;10.48;;;24.50;87.60;;;;;;5011707;28;20401;-56
2023/08/28 01:05:35;;;;;;;11.63;10.45;;;24.50;87.70;;;;;;5011255;28;20018;-54
2023/08/28 01:08:14;;;;;;;11.63;10.52;;;24.50;87.80;;;;;;5011262;28;20034;-56
2023/08/28 01:10:47;;;;;;;12.20;11.00;;;24.50;87.60;;;;;;5011208;28;20030;-55
2023/08/28 01:13:27;;;;;;;12.25;10.82;;;24.50;88.00;;;;;;5011122;28;20494;-56
2023/08/28 01:15:54;;;;;;;12.00;10.80;;;24.50;87.90;;;;;;5012701;28;20044;-56
2023/08/28 01:18:20;;;;;;;13.68;10.48;;;24.50;88.20;;;;;;5015104;28;20061;-53
2023/08/28 01:20:48;;;;;;;11.95;10.73;;;24.50;88.40;;;;;;5014901;28;20386;-57
2023/08/28 01:23:31;;;;;;;11.77;10.57;;;24.50;88.40;;;;;;5015056;28;20377;-56
2023/08/28 01:25:59;;;;;;;14.00;11.40;;;24.50;88.20;;;;;;5014889;28;20022;-56
2023/08/28 01:28:25;;;;;;;11.50;10.38;;;24.40;88.50;;;;;;5014475;28;20544;-57
2023/08/28 01:30:53;;;;;;;12.50;11.25;;;24.40;88.60;;;;;;5014878;28;20033;-55
2023/08/28 01:33:19;;;;;;;12.70;11.50;;;24.40;88.70;;;;;;5014959;28;20052;-57
2023/08/28 01:35:52;;;;;;;13.18;11.45;;;24.40;88.80;;;;;;5014518;28;20038;-56
2023/08/28 01:38:33;;;;;;;14.57;11.50;;;24.40;88.80;;;;;;5014685;28;20037;-56
2023/08/28 01:41:03;;;;;;;12.38;11.20;;;24.30;88.70;;;;;;5014624;28;20017;-56
2023/08/28 01:43:32;;;;;;;12.93;11.68;;;24.30;89.00;;;;;;5014707;28;20036;-56
2023/08/28 01:45:58;;;;;;;12.65;11.38;;;24.30;89.80;;;;;;5014656;28;20080;-56
2023/08/28 01:48:29;;;;;;;11.93;10.82;;;24.30;89.20;;;;;;5014412;28;20108;-56
2023/08/28 01:50:55;;;;;;;14.60;11.93;;;24.30;89.30;;;;;;5014259;28;20033;-56
2023/08/28 01:53:22;;;;;;;13.00;11.25;;;24.30;89.40;;;;;;5014369;28;20030;-56
2023/08/28 01:56:08;;;;;;;14.23;12.20;;;24.30;89.50;;;;;;5014508;28;20030;-56
2023/08/28 01:58:36;;;;;;;13.13;11.80;;;24.30;89.60;;;;;;5014139;28;20033;-56
2023/08/28 02:01:01;;;;;;;13.38;11.98;;;24.30;89.60;;;;;;5014149;28;20018;-57
2023/08/28 02:03:31;;;;;;;12.35;11.15;;;24.20;89.60;;;;;;5014431;28;20018;-56
2023/08/28 02:05:57;;;;;;;13.57;12.25;;;24.20;89.70;;;;;;5014330;28;20026;-56
2023/08/28 02:08:23;;;;;;;16.63;12.48;;;24.20;89.80;;;;;;5013996;28;20037;-56
2023/08/28 02:10:48;;;;;;;13.82;12.38;;;24.20;89.90;;;;;;5013898;28;20032;-56
2023/08/28 02:13:14;;;;;;;13.32;12.13;;;24.20;90.00;;;;;;5013909;28;20041;-54
2023/08/28 02:15:40;;;;;;;13.60;12.10;;;24.20;90.00;;;;;;5013830;28;20121;-56
2023/08/28 02:18:06;;;;;;;14.25;12.25;;;24.10;89.90;;;;;;5013751;28;20037;-56
2023/08/28 02:20:32;;;;;;;13.85;12.45;;;24.10;89.90;;;;;;5013781;28;20025;-56
2023/08/28 02:22:58;;;;;;;14.50;13.02;;;24.10;90.00;;;;;;5013687;28;20021;-54
2023/08/28 02:25:24;;;;;;;17.90;12.68;;;24.10;90.00;;;;;;5013717;28;20469;-56
2023/08/28 02:27:50;;;;;;;14.73;13.20;;;24.10;90.00;;;;;;5012626;28;20111;-56
2023/08/28 02:30:17;;;;;;;14.30;12.80;;;24.10;90.00;;;;;;5013659;28;20389;-56
2023/08/28 02:32:43;;;;;;;14.93;12.93;;;24.10;90.00;;;;;;5013457;28;20030;-56
2023/08/28 02:35:09;;;;;;;13.75;12.35;;;24.10;90.10;;;;;;5013431;28;20030;-57
2023/08/28 02:37:35;;;;;;;15.20;13.73;;;24.10;90.10;;;;;;5013537;28;20485;-57
2023/08/28 02:40:00;;;;;;;14.38;12.38;;;24.10;90.40;;;;;;5013425;28;20595;-56
2023/08/28 02:42:26;;;;;;;13.65;12.35;;;24.00;90.10;;;;;;5013330;28;20104;-56
2023/08/28 02:44:52;;;;;;;14.57;13.05;;;24.00;90.10;;;;;;5013522;28;20077;-56
2023/08/28 02:47:17;;;;;;;14.45;12.95;;;24.00;90.30;;;;;;5013256;28;20112;-54
2023/08/28 02:49:43;;;;;;;15.15;13.45;;;24.00;90.30;;;;;;5013190;28;20025;-57
2023/08/28 02:52:09;;;;;;;15.35;13.90;;;24.00;90.40;;;;;;5013145;28;20034;-56
2023/08/28 02:54:34;;;;;;;15.32;13.82;;;24.00;90.40;;;;;;5013057;28;20025;-56
2023/08/28 02:57:00;;;;;;;14.82;13.40;;;24.00;90.30;;;;;;5013242;28;20061;-54
2023/08/28 02:59:27;;;;;;;18.55;14.75;;;24.00;90.40;;;;;;5013196;28;20026;-57
2023/08/28 03:01:53;;;;;;;17.45;15.10;;;24.00;90.40;;;;;;5013171;28;20034;-56
2023/08/28 03:04:19;;;;;;;16.13;14.40;;;24.00;90.50;;;;;;5012968;28;20470;-54
2023/08/28 03:06:45;;;;;;;16.42;14.73;;;24.00;90.50;;;;;;5012842;28;20033;-57
2023/08/28 03:09:14;;;;;;;16.98;15.27;;;24.00;90.50;;;;;;5012797;28;20099;-56
2023/08/28 03:11:40;;;;;;;16.85;14.90;;;24.00;90.60;;;;;;5013275;28;20096;-56
2023/08/28 03:14:06;;;;;;;17.25;15.57;;;24.00;90.50;;;;;;5013270;28;20113;-55
2023/08/28 03:16:32;;;;;;;18.05;16.23;;;24.00;90.40;;;;;;5012750;28;20100;-57
2023/08/28 03:18:57;;;;;;;17.63;15.75;;;24.00;90.40;;;;;;5012653;28;20021;-57
2023/08/28 03:21:23;;;;;;;16.60;14.90;;;24.00;90.30;;;;;;5012599;28;20490;-56
2023/08/28 03:23:49;;;;;;;16.67;15.02;;;24.00;90.20;;;;;;5012574;28;20021;-56
2023/08/28 03:26:14;;;;;;;16.38;14.65;;;24.00;90.30;;;;;;5012250;28;20413;-55
2023/08/28 03:28:40;;;;;;;18.38;14.93;;;24.00;90.30;;;;;;5012661;28;20033;-56
2023/08/28 03:31:06;;;;;;;17.08;15.48;;;24.00;90.30;;;;;;5012409;28;20041;-56
2023/08/28 03:33:32;;;;;;;17.02;15.32;;;24.10;90.30;;;;;;5012456;28;20041;-57
2023/08/28 03:35:59;;;;;;;17.05;15.40;;;24.10;90.30;;;;;;5012726;28;20363;-57
2023/08/28 03:38:25;;;;;;;16.92;15.38;;;24.10;90.20;;;;;;5012508;28;20053;-56
2023/08/28 03:40:51;;;;;;;16.65;15.05;;;24.10;90.20;;;;;;5012203;28;20018;-57
2023/08/28 03:43:17;;;;;;;17.50;15.80;;;24.10;90.10;;;;;;5012160;28;20093;-55
2023/08/28 03:45:43;;;;;;;17.20;15.30;;;24.10;89.80;;;;;;5012145;28;20049;-57
2023/08/28 03:48:09;;;;;;;19.85;16.90;;;24.20;89.60;;;;;;5010983;28;20451;-55
2023/08/28 03:50:34;;;;;;;22.10;18.17;;;24.20;89.40;;;;;;5011908;28;20030;-56
2023/08/28 03:53:01;;;;;;;22.10;19.45;;;24.30;89.10;;;;;;5011985;28;20083;-56
2023/08/28 03:55:29;;;;;;;23.23;18.75;;;24.30;88.80;;;;;;5012078;28;20030;-56
2023/08/28 03:57:55;;;;;;;21.65;17.90;;;24.30;88.60;;;;;;5012206;28;20037;-56
2023/08/28 04:00:21;;;;;;;17.77;15.90;;;24.30;88.60;;;;;;5011959;28;20026;-56
2023/08/28 04:02:47;;;;;;;21.50;17.63;;;24.30;88.20;;;;;;5011918;28;20029;-56
2023/08/28 04:05:14;;;;;;;23.02;20.63;;;24.40;88.20;;;;;;5012163;28;20025;-57
2023/08/28 04:07:49;;;;;;;24.55;21.95;;;24.40;87.90;;;;;;5011803;28;20033;-55
2023/08/28 04:10:14;;;;;;;24.30;21.80;;;24.50;87.60;;;;;;5012077;28;20107;-55
2023/08/28 04:12:40;;;;;;;23.67;21.23;;;24.50;87.50;;;;;;5012101;28;20037;-57
2023/08/28 04:15:08;;;;;;;21.45;19.17;;;24.60;87.50;;;;;;5011898;28;20072;-56
2023/08/28 04:17:34;;;;;;;21.38;19.27;;;24.60;87.70;;;;;;5011891;28;20068;-56
2023/08/28 04:20:13;;;;;;;25.13;19.60;;;24.70;87.60;;;;;;5011683;28;20033;-57
2023/08/28 04:22:45;;;;;;;23.27;20.98;;;24.80;87.60;;;;;;5011624;28;20021;-57
2023/08/28 04:25:12;;;;;;;23.00;20.60;;;24.80;87.40;;;;;;5011853;28;20045;-57
2023/08/28 04:27:38;;;;;;;23.10;20.42;;;24.90;87.40;;;;;;5011501;28;20436;-57
2023/08/28 04:30:06;;;;;;;22.45;20.15;;;24.90;86.70;;;;;;5011686;28;20030;-56
2023/08/28 04:32:31;;;;;;;21.85;19.60;;;25.00;86.70;;;;;;5011414;28;20030;-57
2023/08/28 04:34:57;;;;;;;23.25;20.42;;;25.10;86.20;;;;;;5011756;28;20036;-57
2023/08/28 04:37:24;;;;;;;25.45;20.92;;;25.20;86.10;;;;;;5011455;28;20034;-56
2023/08/28 04:39:50;;;;;;;22.92;20.45;;;25.20;85.60;;;;;;5010854;28;20191;-56
2023/08/28 04:42:15;;;;;;;21.77;18.80;;;25.20;85.00;;;;;;5010555;28;20034;-55
2023/08/28 04:44:41;;;;;;;21.33;17.98;;;25.30;85.00;;;;;;5010585;28;20516;-56
2023/08/28 04:47:07;;;;;;;19.17;17.05;;;25.40;84.80;;;;;;5010956;28;20493;-56
2023/08/28 04:49:32;;;;;;;22.00;18.20;;;25.40;84.40;;;;;;5011007;28;20109;-54
2023/08/28 04:51:58;;;;;;;18.92;16.48;;;25.50;84.10;;;;;;5014743;28;20079;-57
2023/08/28 04:54:24;;;;;;;18.08;15.15;;;25.50;83.50;;;;;;5015115;28;20422;-56
2023/08/28 04:56:50;;;;;;;17.27;15.35;;;25.60;83.10;;;;;;5015208;28;20038;-56
2023/08/28 04:59:15;;;;;;;17.77;15.40;;;25.60;82.60;;;;;;5015138;28;20025;-53
2023/08/28 05:01:41;;;;;;;15.10;13.60;;;25.70;82.30;;;;;;5015215;28;20417;-56
2023/08/28 05:04:07;;;;;;;17.70;14.35;;;25.70;81.80;;;;;;5015363;28;20062;-55
2023/08/28 05:06:33;;;;;;;15.45;13.85;;;25.80;81.40;;;;;;5015127;28;20061;-56
2023/08/28 05:08:58;;;;;;;15.27;13.63;;;25.80;81.20;;;;;;5015335;28;20076;-56
2023/08/28 05:11:24;;;;;;;16.10;14.05;;;25.90;80.90;;;;;;5013767;28;20014;-56
2023/08/28 05:13:51;;;;;;;14.90;13.00;;;25.90;80.70;;;;;;5013580;28;20492;-56
2023/08/28 05:16:17;;;;;;;16.90;13.32;;;26.00;80.40;;;;;;5013008;28;20113;-57
2023/08/28 05:18:42;;;;;;;16.38;13.32;;;26.20;80.10;;;;;;5014437;28;20108;-56
2023/08/28 05:21:08;;;;;;;18.90;13.35;;;26.30;79.60;;;;;;5014891;28;20029;-57
2023/08/28 05:23:33;;;;;;;15.50;13.30;;;26.50;79.30;;;;;;5014636;28;20433;-56
2023/08/28 05:25:59;;;;;;;14.27;12.60;;;26.60;78.40;;;;;;5014871;28;20030;-56
2023/08/28 05:28:25;;;;;;;14.25;11.77;;;26.70;78.00;;;;;;5014638;28;20049;-57
2023/08/28 05:30:50;;;;;;;13.85;11.98;;;26.80;77.80;;;;;;5014972;28;20041;-52
2023/08/28 05:33:16;;;;;;;13.75;12.00;;;26.90;77.20;;;;;;5014976;28;20038;-56
2023/08/28 05:35:42;;;;;;;15.98;12.02;;;27.00;76.70;;;;;;5014552;28;20058;-56
2023/08/28 05:38:09;;;;;;;14.38;12.25;;;27.00;76.30;;;;;;5014477;28;20084;-56
2023/08/28 05:40:35;;;;;;;17.38;12.05;;;27.00;76.00;;;;;;5014717;28;20060;-56
2023/08/28 05:43:01;;;;;;;15.35;11.63;;;27.00;75.90;;;;;;5014975;28;20057;-57
2023/08/28 05:45:27;;;;;;;14.45;11.88;;;27.10;75.90;;;;;;5014436;28;20026;-56
2023/08/28 05:47:53;;;;;;;14.75;10.52;;;27.10;75.60;;;;;;5014385;28;20033;-56
2023/08/28 05:50:19;;;;;;;11.82;10.57;;;27.20;75.30;;;;;;5014927;28;20029;-56
2023/08/28 05:52:45;;;;;;;12.00;10.38;;;27.20;74.70;;;;;;5014021;28;20033;-55
2023/08/28 05:55:11;;;;;;;15.13;10.95;;;27.20;74.60;;;;;;5013577;28;20033;-56
2023/08/28 05:57:36;;;;;;;16.08;12.00;;;27.30;74.70;;;;;;5012195;28;20040;-55
2023/08/28 06:00:05;;;;;;;17.65;11.85;;;27.30;74.40;;;;;;5012904;28;20032;-55
2023/08/28 06:02:31;;;;;;;15.80;12.77;;;27.30;74.40;;;;;;5010753;28;20018;-55
2023/08/28 06:04:57;;;;;;;16.55;11.05;;;27.40;74.30;;;;;;5011111;28;20456;-57
2023/08/28 06:07:22;;;;;;;13.52;11.43;;;27.40;74.30;;;;;;5009345;28;20057;-56
2023/08/28 06:09:48;;;;;;;14.85;12.50;;;27.50;74.10;;;;;;5009796;28;20510;-57
2023/08/28 06:12:14;;;;;;;14.98;11.70;;;27.50;73.70;;;;;;4993004;28;20057;-57
2023/08/28 06:14:39;;;;;;;16.63;11.68;;;27.50;73.70;;;;;;5002881;28;20034;-57
2023/08/28 06:17:06;;;;;;;14.73;12.23;;;27.50;73.30;;;;;;5012809;28;20393;-55
2023/08/28 06:19:32;;;;;;;18.70;13.15;;;27.50;73.10;;;;;;5005127;28;20022;-54
2023/08/28 06:21:59;;;;;;;15.63;12.02;;;27.60;73.10;;;;;;4993514;28;20367;-55
2023/08/28 06:24:24;;;;;;;14.75;12.95;;;27.60;73.20;;;;;;5008501;28;20493;-57
2023/08/28 06:26:51;;;;;;;16.77;13.90;;;27.70;73.00;;;;;;5012053;28;20066;-56
2023/08/28 06:29:16;;;;;;;17.00;13.35;;;27.70;72.70;;;;;;5003827;28;20514;-53
2023/08/28 06:31:42;;;;;;;17.80;13.57;;;27.80;72.70;;;;;;5012005;28;20069;-57
2023/08/28 06:34:07;;;;;;;18.77;14.00;;;27.80;72.40;;;;;;5005793;28;20034;-57
2023/08/28 06:36:33;;;;;;;21.55;14.00;;;27.90;71.90;;;;;;5010900;28;20029;-57
2023/08/28 06:38:59;;;;;;;18.92;14.15;;;27.90;72.20;;;;;;5003279;28;20512;-56
2023/08/28 06:41:24;;;;;;;17.38;15.45;;;28.00;72.00;;;;;;4993810;28;20033;-57
2023/08/28 06:43:50;;;;;;;21.80;15.93;;;28.00;73.40;;;;;;5002438;28;20034;-57
2023/08/28 06:46:16;;;;;;;25.10;19.27;;;28.00;73.10;;;;;;5005744;28;20026;-57
2023/08/28 06:48:45;;;;;;;24.05;20.45;;;28.10;74.10;;;;;;5010953;28;20105;-57
2023/08/28 06:51:11;;;;;;;27.63;19.85;;;28.20;74.80;;;;;;5008939;28;20061;-55
2023/08/28 06:53:37;;;;;;;20.27;18.05;;;28.20;75.00;;;;;;5007771;28;20026;-56
2023/08/28 06:56:04;;;;;;;23.67;17.98;;;28.30;74.90;;;;;;5010214;28;20026;-55
2023/08/28 06:58:30;;;;;;;18.52;16.52;;;28.30;75.60;;;;;;5011718;28;20034;-57
2023/08/28 07:00:55;;;;;;;21.48;16.70;;;28.30;76.20;;;;;;5012023;28;20020;-57
2023/08/28 07:03:21;;;;;;;19.90;15.95;;;28.40;76.00;;;;;;5011517;28;20058;-54
2023/08/28 07:05:47;;;;;;;17.63;15.82;;;28.40;76.10;;;;;;5010939;28;20026;-57
2023/08/28 07:08:12;;;;;;;19.50;16.08;;;28.40;76.00;;;;;;5008606;28;20036;-55
2023/08/28 07:10:38;;;;;;;19.63;16.52;;;28.40;75.50;;;;;;5002571;28;20453;-56
2023/08/28 07:13:04;;;;;;;18.73;16.30;;;28.40;75.30;;;;;;5008114;28;20441;-57
2023/08/28 07:15:29;;;;;;;16.63;14.95;;;28.50;75.30;;;;;;5009154;28;20049;-57
2023/08/28 07:17:55;;;;;;;19.58;16.88;;;28.50;75.50;;;;;;5009557;28;20497;-55
2023/08/28 07:20:22;;;;;;;16.75;14.55;;;28.50;74.80;;;;;;5008989;28;20409;-55
2023/08/28 07:22:48;;;;;;;15.30;13.70;;;28.50;75.40;;;;;;5007363;28;20418;-57
2023/08/28 07:25:16;;;;;;;14.18;12.48;;;28.60;75.80;;;;;;5002924;28;20021;-54
2023/08/28 07:27:42;;;;;;;16.50;14.80;;;28.60;75.80;;;;;;5003384;28;20107;-57
2023/08/28 07:30:08;;;;;;;14.73;13.23;;;28.60;76.00;;;;;;5008203;28;20034;-57
2023/08/28 07:32:34;;;;;;;13.07;11.73;;;28.60;76.00;;;;;;5009236;28;20113;-57
2023/08/28 07:35:00;;;;;;;12.95;11.18;;;28.70;76.10;;;;;;5005870;28;20441;-57
2023/08/28 07:37:30;;;;;;;12.35;10.27;;;28.60;76.00;;;;;;5004549;28;20124;-57
2023/08/28 07:39:55;;;;;;;13.07;11.77;;;28.60;76.40;;;;;;5009465;28;20033;-55
2023/08/28 07:42:21;;;;;;;11.63;10.05;;;28.60;76.40;;;;;;5006097;28;20026;-57
2023/08/28 07:44:50;;;;;;;11.77;10.40;;;28.60;76.70;;;;;;4994315;28;20026;-54
2023/08/28 07:47:16;;;;;;;11.13;10.07;;;28.60;77.50;;;;;;5000880;28;20161;-53
2023/08/28 07:49:43;;;;;;;11.77;9.93;;;28.60;78.20;;;;;;4998948;28;20033;-55
2023/08/28 07:52:09;;;;;;;11.20;10.00;;;28.60;78.00;;;;;;4999989;28;20503;-58
2023/08/28 07:54:34;;;;;;;11.38;10.27;;;28.60;78.00;;;;;;5003161;28;20044;-56
2023/08/28 07:57:00;;;;;;;12.00;10.90;;;28.60;78.00;;;;;;5001149;28;20183;-56
2023/08/28 07:59:26;;;;;;;12.32;11.02;;;28.60;78.30;;;;;;5003193;28;20022;-55
2023/08/28 08:01:51;;;;;;;12.73;11.40;;;28.50;78.20;;;;;;5002872;28;20057;-56
2023/08/28 08:04:17;;;;;;;13.50;11.05;;;28.50;78.10;;;;;;5000871;28;20113;-56
2023/08/28 08:06:43;;;;;;;11.45;10.35;;;28.50;78.00;;;;;;5002672;28;20058;-57
2023/08/28 08:09:09;;;;;;;11.52;10.48;;;28.40;78.10;;;;;;5007233;28;20132;-56
2023/08/28 08:11:35;;;;;;;10.50;9.50;;;28.40;77.80;;;;;;5004430;28;20504;-56
2023/08/28 08:14:00;;;;;;;11.02;9.93;;;28.40;77.00;;;;;;5002772;28;20033;-57
2023/08/28 08:16:26;;;;;;;10.43;9.48;;;28.40;77.40;;;;;;5001144;28;20541;-54
2023/08/28 08:18:52;;;;;;;10.55;9.48;;;28.40;77.50;;;;;;4998449;28;20095;-55
2023/08/28 08:21:17;;;;;;;10.20;9.30;;;28.40;78.30;;;;;;5003706;28;20053;-57
2023/08/28 08:23:43;;;;;;;11.27;10.18;;;28.40;77.50;;;;;;5007411;28;20029;-57
2023/08/28 08:26:09;;;;;;;12.02;10.93;;;28.40;77.80;;;;;;5006981;28;20033;-56
2023/08/28 08:28:36;;;;;;;10.68;9.57;;;28.40;77.60;;;;;;4998943;28;20029;-56
2023/08/28 08:31:01;;;;;;;10.15;9.18;;;28.40;77.90;;;;;;5001799;28;20064;-55
2023/08/28 08:33:27;;;;;;;11.60;10.43;;;28.40;77.80;;;;;;5006024;28;20058;-56
2023/08/28 08:35:53;;;;;;;11.32;10.23;;;28.40;78.40;;;;;;5006786;28;20069;-57
2023/08/28 08:38:19;;;;;;;12.65;11.45;;;28.50;78.40;;;;;;5001573;28;20033;-55
2023/08/28 08:40:52;;;;;;;11.50;10.40;;;28.40;78.60;;;;;;5006526;28;20030;-57
2023/08/28 08:43:19;;;;;;;12.48;10.85;;;28.40;77.90;;;;;;5005349;28;20129;-57
2023/08/28 08:45:47;;;;;;;12.10;10.90;;;28.50;77.20;;;;;;5005617;28;20021;-57
2023/08/28 08:48:17;;;;;;;10.07;9.18;;;28.40;77.20;;;;;;5005627;28;20038;-56
2023/08/28 08:50:45;;;;;;;10.43;9.37;;;28.40;77.20;;;;;;5004719;28;20034;-57
2023/08/28 08:53:21;;;;;;;9.48;8.45;;;28.40;76.70;;;;;;4999978;28;20084;-56
2023/08/28 08:55:49;;;;;;;9.27;8.45;;;28.40;75.90;;;;;;4999258;28;20041;-56
2023/08/28 08:58:16;;;;;;;8.95;8.05;;;28.40;76.30;;;;;;4998857;28;20794;-56
2023/08/28 09:00:45;;;;;;;10.00;8.30;;;28.40;76.00;;;;;;5003788;28;20036;-55
2023/08/28 09:03:13;;;;;;;9.38;8.18;;;28.40;76.20;;;;;;5004505;28;20033;-56
2023/08/28 09:05:39;;;;;;;9.10;8.20;;;28.40;75.80;;;;;;4998934;28;20390;-56
2023/08/28 09:08:06;;;;;;;9.77;8.88;;;28.40;76.00;;;;;;5003280;28;20045;-56
2023/08/28 09:10:33;;;;;;;9.73;8.73;;;28.50;75.00;;;;;;5001840;28;20041;-55
2023/08/28 09:12:58;;;;;;;9.73;8.73;;;28.40;74.00;;;;;;5004079;28;20037;-57
2023/08/28 09:15:24;;;;;;;10.38;8.98;;;28.50;73.50;;;;;;5001811;28;20029;-56
2023/08/28 09:17:51;;;;;;;11.15;8.88;;;28.50;73.50;;;;;;4998286;28;20038;-55
2023/08/28 09:20:18;;;;;;;9.93;9.00;;;28.50;72.90;;;;;;4998830;28;20036;-55
2023/08/28 09:22:51;;;;;;;11.43;10.23;;;28.60;73.00;;;;;;5001324;28;20036;-56
2023/08/28 09:25:18;;;;;;;11.57;10.27;;;28.60;72.50;;;;;;5001654;28;20076;-55
2023/08/28 09:27:45;;;;;;;10.38;9.15;;;28.60;72.50;;;;;;5004037;28;20042;-55
2023/08/28 09:30:27;;;;;;;10.65;8.80;;;28.70;72.20;;;;;;4998274;28;20404;-54
2023/08/28 09:32:52;;;;;;;9.43;7.72;;;28.70;72.10;;;;;;5001023;28;20080;-55
2023/08/28 09:35:22;;;;;;;8.95;8.02;;;28.70;71.30;;;;;;5004580;28;20030;-56
2023/08/28 09:38:01;;;;;;;9.50;8.23;;;28.70;70.80;;;;;;4999660;28;20044;-53
2023/08/28 09:40:40;;;;;;;9.65;7.53;;;28.80;70.60;;;;;;5002818;28;20103;-56
2023/08/28 09:43:14;;;;;;;16.17;8.88;;;28.80;71.00;;;;;;5006011;28;20026;-56
2023/08/28 09:45:43;;;;;;;10.02;7.80;;;28.80;70.80;;;;;;5006264;28;20099;-55
2023/08/28 09:48:10;;;;;;;9.00;8.10;;;28.80;71.00;;;;;;5007948;28;20108;-57
2023/08/28 09:50:40;;;;;;;10.77;7.82;;;28.90;71.20;;;;;;5005638;28;20494;-55
2023/08/28 09:53:10;;;;;;;8.52;7.10;;;28.90;71.20;;;;;;5005166;28;20089;-54
2023/08/28 09:55:48;;;;;;;8.23;7.22;;;28.90;71.10;;;;;;5007164;28;20087;-53
2023/08/28 09:58:15;;;;;;;8.68;7.30;;;28.90;70.90;;;;;;5004053;28;20100;-55
2023/08/28 10:00:42;;;;;;;9.27;8.02;;;28.90;71.10;;;;;;5003250;28;20034;-55
2023/08/28 10:03:09;;;;;;;8.30;7.50;;;28.90;71.20;;;;;;5003959;28;20026;-56
2023/08/28 10:05:37;;;;;;;7.95;7.15;;;28.90;70.90;;;;;;5005127;28;20123;-55
2023/08/28 10:08:08;;;;;;;8.15;7.07;;;28.90;70.70;;;;;;5004041;28;20054;-55
2023/08/28 10:10:35;;;;;;;7.95;6.95;;;28.90;70.00;;;;;;5001611;28;20023;-56
2023/08/28 10:13:09;;;;;;;8.50;7.60;;;28.80;70.20;;;;;;5006433;28;20033;-55
2023/08/28 10:15:41;;;;;;;8.30;7.50;;;28.90;70.30;;;;;;5008595;28;20041;-54
2023/08/28 10:18:17;;;;;;;8.85;7.70;;;28.80;70.20;;;;;;5002044;28;20116;-56
2023/08/28 10:20:44;;;;;;;9.07;7.95;;;28.90;70.30;;;;;;5002031;28;20447;-56
2023/08/28 10:23:10;;;;;;;11.15;8.35;;;28.90;70.90;;;;;;5005282;28;20038;-54
2023/08/28 10:25:37;;;;;;;9.40;8.45;;;28.90;70.90;;;;;;5005079;28;20103;-56
2023/08/28 10:28:03;;;;;;;9.82;8.07;;;28.90;70.80;;;;;;5005759;28;20406;-56
2023/08/28 10:30:34;;;;;;;10.43;8.25;;;28.90;70.90;;;;;;5007799;28;20022;-56
2023/08/28 10:33:01;;;;;;;9.55;7.50;;;28.90;71.30;;;;;;5001941;28;20546;-55
2023/08/28 10:35:28;;;;;;;9.90;7.80;;;28.90;71.10;;;;;;5007008;28;20034;-54
2023/08/28 10:37:55;;;;;;;9.40;8.50;;;28.90;71.10;;;;;;5008870;28;20022;-56
2023/08/28 10:40:21;;;;;;;9.75;8.73;;;28.90;71.20;;;;;;5008000;28;20022;-56
2023/08/28 10:42:48;;;;;;;10.25;8.38;;;28.90;71.30;;;;;;5008319;28;20022;-56
2023/08/28 10:45:14;;;;;;;9.32;8.30;;;28.90;71.20;;;;;;5003765;28;20040;-55
2023/08/28 10:47:39;;;;;;;9.15;8.25;;;28.90;71.60;;;;;;5008331;28;20026;-56
2023/08/28 10:50:06;;;;;;;10.35;8.00;;;28.80;71.60;;;;;;5006028;28;20049;-55
2023/08/28 10:52:32;;;;;;;10.82;8.70;;;28.80;71.70;;;;;;5006231;28;20486;-54
2023/08/28 10:55:05;;;;;;;9.00;8.10;;;28.80;72.00;;;;;;5009797;28;20033;-55
2023/08/28 10:57:30;;;;;;;9.50;8.50;;;28.80;71.90;;;;;;5005429;28;20103;-54
2023/08/28 11:00:13;;;;;;;9.82;8.75;;;28.80;72.10;;;;;;5010878;28;20026;-56
2023/08/28 11:03:02;;;;;;;10.93;9.43;;;28.80;72.00;;;;;;5010622;28;20022;-55
2023/08/28 11:05:28;;;;;;;10.60;9.32;;;28.80;71.60;;;;;;5009942;28;20363;-56
2023/08/28 11:07:54;;;;;;;9.85;8.85;;;28.80;71.70;;;;;;5009875;28;20034;-55
2023/08/28 11:10:21;;;;;;;10.00;9.00;;;28.70;72.30;;;;;;5010897;28;20498;-55
2023/08/28 11:12:56;;;;;;;10.77;9.68;;;28.70;72.80;;;;;;5012896;28;20041;-55
2023/08/28 11:15:32;;;;;;;12.27;10.02;;;28.70;73.30;;;;;;5011315;28;20029;-56
2023/08/28 11:18:18;;;;;;;11.40;9.35;;;28.70;74.50;;;;;;5011999;28;20030;-55
2023/08/28 11:20:47;;;;;;;11.45;8.98;;;28.70;74.50;;;;;;5000427;28;20029;-56
2023/08/28 11:23:25;;;;;;;10.65;9.57;;;28.70;75.40;;;;;;5000093;28;20041;-56
2023/08/28 11:25:52;;;;;;;11.07;9.90;;;28.70;76.60;;;;;;5008056;28;20029;-55
2023/08/28 11:28:24;;;;;;;10.15;9.15;;;28.70;77.40;;;;;;5004619;28;20116;-56
2023/08/28 11:30:49;;;;;;;9.98;8.98;;;28.70;78.70;;;;;;4999702;28;20084;-56
2023/08/28 11:33:18;;;;;;;10.15;8.98;;;28.70;79.70;;;;;;5003942;28;20054;-57
2023/08/28 11:35:43;;;;;;;9.68;8.38;;;28.60;80.30;;;;;;5003319;28;20575;-54
2023/08/28 11:38:09;;;;;;;9.85;8.70;;;28.60;80.50;;;;;;5002415;28;20205;-56
2023/08/28 11:40:35;;;;;;;9.65;8.75;;;28.60;80.60;;;;;;5004340;28;20058;-55
2023/08/28 11:43:11;;;;;;;9.80;8.20;;;28.50;81.00;;;;;;5000758;28;20106;-54
2023/08/28 11:45:37;;;;;;;8.55;7.60;;;28.60;81.40;;;;;;5004805;28;20018;-55
2023/08/28 11:48:06;;;;;;;9.70;8.43;;;28.50;81.40;;;;;;5009919;28;20056;-56
2023/08/28 11:50:33;;;;;;;10.40;8.73;;;28.50;81.10;;;;;;5007861;28;20053;-56
2023/08/28 11:52:58;;;;;;;10.60;9.50;;;28.40;79.80;;;;;;5001183;28;20030;-53
2023/08/28 11:55:24;;;;;;;10.95;9.43;;;28.40;77.30;;;;;;5007164;28;20555;-55
2023/08/28 11:57:50;;;;;;;14.02;9.45;;;28.40;76.50;;;;;;5012932;28;20489;-56
2023/08/28 12:00:16;;;;;;;9.60;8.70;;;28.40;76.30;;;;;;5007060;28;20037;-54
2023/08/28 12:02:45;;;;;;;10.77;9.20;;;28.40;75.40;;;;;;5007550;28;20034;-55
2023/08/28 12:05:12;;;;;;;11.50;8.35;;;28.40;75.20;;;;;;5007499;28;20057;-55
2023/08/28 12:07:43;;;;;;;10.63;9.13;;;28.40;74.90;;;;;;5001929;28;20474;-55
2023/08/28 12:10:09;;;;;;;8.45;7.63;;;28.40;74.40;;;;;;5006938;28;20037;-55
2023/08/28 12:12:36;;;;;;;8.77;7.97;;;28.40;74.00;;;;;;5005685;28;20096;-56
2023/08/28 12:15:03;;;;;;;9.32;8.43;;;28.40;74.10;;;;;;5003268;28;20077;-55
2023/08/28 12:17:29;;;;;;;10.00;9.00;;;28.40;74.40;;;;;;5003512;28;20026;-55
2023/08/28 12:19:55;;;;;;;9.20;8.10;;;28.40;74.10;;;;;;5002904;28;20026;-55
2023/08/28 12:22:21;;;;;;;9.52;8.20;;;28.50;74.00;;;;;;5004618;28;20481;-54
2023/08/28 12:24:48;;;;;;;8.90;7.68;;;28.50;73.30;;;;;;5000485;28;20386;-56
2023/08/28 12:27:16;;;;;;;9.55;7.40;;;28.50;73.00;;;;;;4998207;28;20931;-56
2023/08/28 12:29:42;;;;;;;9.18;7.95;;;28.50;72.70;;;;;;4994371;28;20464;-56
2023/08/28 12:32:18;;;;;;;9.50;8.50;;;28.50;72.40;;;;;;5003709;28;20028;-56